Date,TemperatureHighF,TemperatureAvgF,TemperatureLowF,DewpointHighF,DewpointAvgF,DewpointLowF,HumidityHigh,HumidityAvg,HumidityLow,PressureMaxIn,PressureMinIn,WindSpeedMaxMPH,WindSpeedAvgMPH,GustSpeedMaxMPH,PrecipitationSumIn
2012-1-1,29,25,19,26,20,14,87,80,73,30.54,30.00,20,10,29,0.00
2012-1-2,21,15,10,14,10,6,88,79,68,30.71,30.54,13,5,18,0.00
2012-1-3,35,23,9,29,17,6,88,78,62,30.57,29.98,23,9,33,0.00
2012-1-4,51,33,21,35,28,20,95,80,51,30.25,30.04,16,4,21,0.00
2012-1-5,60,41,24,37,30,21,90,67,41,30.05,29.72,17,6,23,0.00
2012-1-6,48,41,34,31,28,23,78,61,38,30.04,29.73,13,5,20,0.00
2012-1-7,42,31,21,29,23,16,89,74,55,30.32,30.04,11,4,16,0.00
2012-1-8,47,29,14,29,21,10,92,74,47,30.39,30.17,14,5,20,0.00
2012-1-9,54,39,30,32,26,22,78,62,42,30.17,30.00,19,8,25,0.00
2012-1-10,56,38,25,35,28,20,84,67,43,30.04,29.72,9,4,18,0.00
2012-1-11,37,23,9,34,19,4,97,85,71,30.10,29.70,17,9,28,0.00
2012-1-12,12,8,2,7,4,-1,85,82,79,30.14,30.05,17,10,22,0.00
2012-1-13,12,4,-4,4,-1,-8,85,80,68,30.21,30.13,8,2,12,0.00
2012-1-14,33,18,4,28,15,0,95,87,78,30.20,30.13,7,3,11,0.00
2012-1-15,44,29,11,31,23,9,93,79,58,30.18,29.77,23,9,30,0.00
2012-1-16,30,21,16,26,16,10,87,80,68,30.18,29.82,18,7,24,0.00
2012-1-17,16,7,-3,11,2,-7,87,78,69,30.45,30.16,14,6,18,0.00
2012-1-18,27,8,-6,18,2,-12,86,77,68,30.37,29.84,22,10,30,0.01
2012-1-19,4,-4,-12,-11,-13,-18,77,65,45,30.40,30.21,14,4,18,0.00
2012-1-20,11,6,-1,7,1,-11,89,81,60,30.40,30.26,12,4,16,0.00
2012-1-21,23,6,-8,21,3,-11,92,88,84,30.41,29.83,31,12,45,0.00
2012-1-22,26,24,23,25,23,21,97,95,90,29.82,29.65,27,10,32,0.00
2012-1-23,25,22,20,24,20,17,96,93,90,30.10,29.66,13,5,18,0.00
2012-1-24,24,22,17,22,19,14,93,89,85,30.39,30.11,9,4,15,0.00
2012-1-25,32,28,24,30,27,22,96,95,93,30.36,29.89,15,8,24,0.00
2012-1-26,40,31,22,34,27,18,96,85,69,29.94,29.83,17,6,23,0.00
2012-1-27,35,28,21,35,24,18,98,88,79,30.10,29.83,20,7,30,0.01
2012-1-28,34,24,15,26,18,11,95,78,60,30.15,30.06,10,4,16,0.00
2012-1-29,23,19,12,21,15,8,93,85,77,30.33,29.97,21,6,29,0.00
2012-1-30,56,36,22,40,30,19,92,80,52,29.95,29.65,15,6,22,0.00
2012-1-31,41,34,30,37,32,28,98,91,82,30.09,29.63,9,3,14,0.00
2012-2-1,52,35,27,41,33,26,100,92,58,30.20,30.10,11,4,16,0.00
2012-2-2,49,32,22,36,29,21,99,87,59,30.50,30.21,13,3,18,0.00
2012-2-3,32,30,29,31,30,28,99,98,93,30.59,30.49,12,7,16,0.00
2012-2-4,31,27,22,30,26,22,99,97,94,30.57,30.48,10,2,14,0.00
2012-2-5,41,30,25,32,28,23,99,91,68,30.50,30.31,7,1,10,0.00
2012-2-6,45,32,20,34,26,19,94,82,59,30.44,30.19,14,6,22,0.00
2012-2-7,30,23,9,25,14,3,81,68,39,30.67,30.45,15,7,23,0.00
2012-2-8,33,17,2,11,5,-1,88,63,29,30.66,30.39,8,2,14,0.00
2012-2-9,45,24,10,26,15,3,89,69,43,30.39,30.00,19,9,26,0.00
2012-2-10,14,7,0,2,-4,-8,75,62,41,30.80,30.25,17,9,26,0.00
2012-2-11,20,7,-4,0,-5,-9,79,60,39,30.86,30.68,13,4,19,0.00
2012-2-12,35,17,-2,8,0,-8,74,50,25,30.68,29.99,18,6,24,0.00
2012-2-13,31,26,18,24,17,7,92,69,53,29.99,29.65,15,6,23,0.00
2012-2-14,42,27,13,30,22,11,94,83,64,29.73,29.58,12,5,18,0.00
2012-2-15,40,28,15,35,24,13,94,87,75,30.00,29.73,7,2,10,0.00
2012-2-16,41,29,18,26,19,11,96,68,37,30.08,29.92,11,4,20,0.00
2012-2-17,36,27,18,27,19,12,89,73,45,30.14,29.87,12,4,18,0.00
2012-2-18,40,24,9,23,16,7,92,73,48,30.22,30.07,11,3,15,0.00
2012-2-19,46,32,17,27,22,14,88,69,45,30.07,29.90,21,10,33,0.00
2012-2-20,39,33,27,33,28,23,99,83,60,29.93,29.50,24,13,36,0.19
2012-2-21,34,32,24,34,28,22,99,88,76,29.55,29.48,13,4,23,0.05
2012-2-22,35,28,17,31,25,16,97,89,74,29.51,29.33,8,2,11,0.02
2012-2-23,33,29,0,29,26,0,97,89,84,29.68,29.35,11,4,14,0.00
2012-2-24,30,22,14,28,18,11,90,84,75,30.09,29.69,14,6,19,0.00
2012-2-25,25,16,6,22,12,4,88,83,70,30.22,29.89,22,7,32,0.00
2012-2-26,33,27,20,30,23,17,92,86,80,30.04,29.49,28,12,42,0.00
2012-2-27,24,18,11,21,15,8,91,85,76,30.42,30.05,21,5,29,0.00
2012-2-28,33,31,25,32,29,21,97,93,87,30.26,29.44,23,10,28,0.05
2012-2-29,34,32,30,33,32,29,99,97,94,29.68,29.17,0,0,0,0.15
2012-3-1,33,30,24,32,30,23,99,97,93,29.74,29.62,15,3,21,0.08
2012-3-2,30,24,18,27,22,18,97,91,83,29.68,29.58,16,6,26,0.01
2012-3-3,20,15,5,18,12,2,92,88,82,29.88,29.64,11,4,19,0.00
2012-3-4,22,14,2,19,11,0,94,91,86,30.10,29.85,7,2,10,0.05
2012-3-5,36,22,2,33,20,-1,95,91,87,30.14,29.71,23,10,30,0.01
2012-3-6,46,36,28,41,33,26,94,89,80,29.71,29.43,15,9,20,0.00
2012-3-7,44,31,22,40,28,20,96,91,85,30.00,29.44,17,7,22,0.00
2012-3-8,38,28,19,32,23,16,95,83,69,30.42,30.01,16,6,21,0.00
2012-3-9,35,24,11,30,18,8,87,80,71,30.54,29.97,24,9,28,0.00
2012-3-10,62,46,34,51,38,30,85,72,60,29.96,29.77,16,9,23,0.00
2012-3-11,62,49,38,53,42,33,94,76,65,29.81,29.63,21,11,32,0.02
2012-3-12,53,46,40,50,44,37,99,94,81,29.80,29.50,17,6,21,0.05
2012-3-13,66,48,34,54,43,32,94,81,58,29.91,29.64,21,9,31,0.00
2012-3-14,66,53,41,51,44,37,97,76,44,29.83,29.54,17,6,23,0.00
2012-3-15,61,45,33,46,36,29,89,72,53,29.96,29.83,12,4,15,0.00
2012-3-16,81,57,36,58,46,33,92,71,27,29.87,29.61,16,5,24,0.00
2012-3-17,78,65,53,64,58,52,97,81,59,29.62,29.51,27,12,41,0.00
2012-3-18,82,69,60,62,60,57,96,74,44,29.55,29.42,30,15,40,0.00
2012-3-19,78,66,58,62,60,56,94,81,55,29.51,29.36,27,13,40,0.28
2012-3-20,58,54,49,56,50,45,96,86,74,29.83,29.52,12,4,16,0.01
2012-3-21,62,54,48,56,52,46,100,93,78,29.94,29.76,9,3,15,0.09
2012-3-22,62,57,54,60,57,53,100,98,95,29.94,29.81,16,8,21,0.28
2012-3-23,67,58,52,58,55,52,100,91,67,29.85,29.76,10,2,14,0.01
2012-3-24,71,55,43,60,52,41,100,89,52,30.00,29.79,10,3,16,0.01
2012-3-25,54,43,35,41,36,31,96,78,47,30.13,30.01,17,7,23,0.10
2012-3-26,47,43,39,41,38,33,87,81,74,30.10,29.66,37,22,53,0.01
2012-3-27,63,53,43,50,43,37,90,70,48,29.76,29.42,32,14,43,0.00
2012-3-28,52,43,35,39,37,34,94,79,61,29.99,29.76,11,4,16,0.00
2012-3-29,63,50,40,50,42,36,89,75,50,29.95,29.64,26,14,35,0.12
2012-3-30,63,54,47,51,48,44,97,84,50,29.69,29.61,15,4,23,0.00
2012-3-31,64,52,46,55,49,44,99,91,73,29.70,29.55,22,12,33,0.00
2012-4-1,70,56,47,54,50,47,100,83,56,29.59,29.37,32,17,40,0.00
2012-4-2,71,59,51,57,49,41,85,69,58,29.70,29.42,28,16,40,0.00
2012-4-3,64,54,45,45,36,24,85,56,24,30.01,29.72,22,11,31,0.00
2012-4-4,63,51,40,29,27,23,60,42,22,29.99,29.84,18,8,24,0.00
2012-4-5,63,52,41,35,30,25,60,44,29,30.03,29.85,20,10,28,0.00
2012-4-6,63,51,36,31,27,23,67,42,21,30.11,29.87,28,13,33,0.00
2012-4-7,57,52,40,44,33,20,80,51,29,30.10,29.84,18,9,29,0.03
2012-4-8,63,48,34,32,23,19,62,40,20,30.15,30.00,15,5,29,0.00
2012-4-9,47,40,32,25,22,18,65,49,37,30.11,30.02,12,5,20,0.00
2012-4-10,45,34,24,21,18,14,77,54,34,30.26,30.11,12,4,20,0.00
2012-4-11,53,37,20,22,17,12,75,47,26,30.36,30.12,9,2,16,0.00
2012-4-12,65,50,31,40,23,14,66,37,19,30.12,29.84,22,10,32,0.00
2012-4-13,55,51,47,52,46,36,97,84,52,29.83,29.44,29,17,44,0.25
2012-4-14,72,58,43,55,48,41,96,72,34,29.69,29.42,16,7,24,0.00
2012-4-15,60,53,42,58,52,41,98,95,81,29.45,29.09,32,16,58,0.56
2012-4-16,42,37,0,40,34,0,96,87,75,30.13,29.26,15,7,24,0.01
2012-4-17,60,47,33,50,40,31,94,79,61,30.19,29.76,25,10,30,0.01
2012-4-18,58,51,44,52,46,41,96,86,66,29.92,29.69,20,5,29,0.04
2012-4-19,48,44,38,41,37,30,91,75,54,29.92,29.85,16,8,24,0.07
2012-4-20,58,45,32,42,33,28,88,66,39,30.04,29.89,9,2,18,0.00
2012-4-21,51,47,43,48,43,38,97,86,67,29.89,29.68,22,10,32,0.64
2012-4-22,53,45,39,45,42,38,99,91,71,30.16,29.87,8,3,14,0.00
2012-4-23,70,52,34,48,40,33,97,68,30,30.14,29.70,9,3,13,0.01
2012-4-24,77,62,46,51,46,42,86,59,34,29.70,29.39,15,8,22,0.00
2012-4-25,76,66,55,59,52,47,86,63,43,29.68,29.34,19,6,24,0.02
2012-4-26,59,52,44,48,33,19,82,51,22,30.02,29.68,20,10,28,0.00
2012-4-27,57,50,44,36,29,25,72,46,33,30.04,29.82,39,19,47,0.03
2012-4-28,51,43,39,42,38,30,97,84,44,30.09,29.84,27,16,38,0.07
2012-4-29,54,48,42,48,45,41,98,88,75,30.10,29.91,16,9,25,0.00
2012-4-30,71,57,44,52,45,40,96,69,33,29.90,29.64,12,6,24,0.00
2012-5-1,86,65,54,61,56,46,93,74,38,29.64,29.33,31,14,43,0.23
2012-5-2,81,67,53,64,58,52,99,75,39,29.61,29.42,15,5,19,0.01
2012-5-3,77,68,58,65,59,53,99,75,50,29.79,29.54,15,6,21,0.02
2012-5-4,70,59,53,58,54,51,92,83,60,29.83,29.67,31,13,41,0.43
2012-5-5,63,55,51,59,54,49,99,95,87,29.96,29.66,32,12,43,1.33
2012-5-6,66,60,54,62,58,52,99,93,83,29.90,29.68,27,5,38,0.77
2012-5-7,67,56,46,51,47,43,90,72,44,29.90,29.80,11,4,23,0.00
2012-5-8,60,53,48,52,47,44,95,82,64,29.90,29.78,9,4,18,0.03
2012-5-9,65,56,48,50,45,40,96,68,40,29.98,29.81,7,2,14,0.00
2012-5-10,78,68,48,51,47,42,80,49,34,29.81,29.59,24,14,35,0.00
2012-5-11,67,59,51,53,46,39,86,63,41,30.13,29.58,21,6,29,0.01
2012-5-12,71,58,41,46,31,21,86,41,16,30.29,30.14,9,1,15,0.00
2012-5-13,76,63,44,41,35,29,64,37,19,30.17,29.93,20,7,26,0.00
2012-5-14,88,72,52,47,40,32,72,38,14,29.93,29.68,16,8,30,0.00
2012-5-15,72,65,57,46,40,33,62,41,24,29.97,29.67,15,5,23,0.00
2012-5-16,75,62,44,41,35,29,72,41,21,30.07,29.83,14,4,19,0.00
2012-5-17,95,76,61,53,43,32,50,33,17,29.83,29.48,35,21,58,0.00
2012-5-18,96,81,70,62,54,44,67,43,17,29.53,29.44,31,20,46,0.08
2012-5-19,84,71,56,62,57,51,88,62,47,29.75,29.48,23,10,35,0.10
2012-5-20,68,57,52,54,50,45,97,80,48,30.07,29.66,12,3,21,0.41
2012-5-21,74,63,48,54,48,46,93,63,36,30.13,29.90,13,4,18,0.00
2012-5-22,87,73,56,54,49,44,66,44,30,29.90,29.40,36,16,44,0.00
2012-5-23,80,69,60,62,55,47,97,65,37,29.42,29.25,21,10,32,0.31
2012-5-24,62,60,54,60,57,52,100,93,80,29.64,29.29,14,2,16,0.66
2012-5-25,64,58,50,58,52,45,97,82,54,29.97,29.65,10,2,15,0.02
2012-5-26,64,61,56,63,59,55,96,92,86,30.07,29.61,27,14,35,0.34
2012-5-27,88,75,64,72,68,62,99,81,53,29.61,29.40,39,13,46,0.59
2012-5-28,75,66,56,66,57,44,98,74,42,29.64,29.45,19,8,26,0.05
2012-5-29,62,55,51,52,46,43,85,73,60,29.89,29.62,12,4,21,0.00
2012-5-30,58,51,42,49,44,41,95,79,56,29.96,29.88,10,1,14,0.10
2012-5-31,65,56,47,50,44,38,98,69,38,29.98,29.88,7,2,14,0.01
2012-6-1,70,59,47,50,44,40,89,60,36,29.88,29.65,13,3,20,0.00
2012-6-2,79,66,54,56,52,48,96,65,34,29.69,29.62,9,2,14,0.00
2012-6-3,82,69,56,56,52,48,83,56,33,29.69,29.59,19,7,23,0.00
2012-6-4,85,72,56,60,52,41,86,53,23,29.81,29.68,11,3,16,0.00
2012-6-5,85,73,59,61,51,43,73,49,25,29.86,29.77,16,5,25,0.00
2012-6-6,83,75,62,60,57,51,80,56,39,29.85,29.81,14,7,23,0.00
2012-6-7,82,72,64,70,64,58,95,76,57,29.94,29.78,13,7,21,0.26
2012-6-8,89,77,67,66,62,57,82,62,34,29.80,29.56,20,7,29,0.00
2012-6-9,91,80,69,62,58,55,66,49,32,29.58,29.40,23,11,35,0.00
2012-6-10,88,76,60,72,63,56,93,67,47,29.61,29.39,24,9,41,0.09
2012-6-11,71,64,52,59,52,41,96,68,40,29.93,29.53,15,6,23,0.00
2012-6-12,71,61,44,47,44,40,85,54,37,30.10,29.93,9,2,12,0.00
2012-6-13,76,63,56,59,51,44,92,64,44,29.99,29.67,24,8,32,0.16
2012-6-14,87,74,65,70,62,53,87,66,43,29.72,29.51,23,9,29,0.00
2012-6-15,80,71,61,65,61,56,100,73,44,29.85,29.73,11,2,19,0.00
2012-6-16,80,71,58,69,59,49,94,70,35,29.83,29.69,10,2,20,0.00
2012-6-17,81,66,52,72,58,49,98,77,44,29.76,29.19,28,9,39,1.70
2012-6-18,90,76,64,73,67,62,99,76,40,29.47,29.25,17,2,18,0.00
2012-6-19,88,77,65,77,70,64,97,81,66,29.56,29.37,24,10,30,1.34
2012-6-20,81,67,62,73,64,60,98,90,74,29.74,29.43,23,2,27,0.50
2012-6-21,77,67,57,62,58,55,97,76,51,29.92,29.75,8,3,17,0.01
2012-6-22,80,69,55,64,58,53,95,72,42,29.92,29.77,7,2,10,0.00
2012-6-23,80,72,64,69,64,59,91,77,60,29.80,29.68,16,5,22,0.03
2012-6-24,82,74,64,73,68,61,98,82,62,29.92,29.73,14,5,19,0.00
2012-6-25,78,69,57,62,56,48,90,64,41,30.02,29.83,19,7,27,0.00
2012-6-26,82,70,58,64,58,54,88,67,47,29.87,29.52,21,8,30,2.88
2012-6-27,90,79,67,79,70,60,89,75,66,29.60,29.44,11,4,18,0.00
2012-6-28,86,76,65,74,62,53,93,63,33,29.81,29.61,12,1,20,0.00
2012-6-29,86,74,59,74,66,55,97,77,53,29.76,29.65,7,1,13,0.00
2012-6-30,87,75,61,73,66,61,100,78,43,29.73,29.67,7,1,9,0.00
2012-7-1,89,79,67,81,72,64,95,81,66,29.74,29.64,13,3,18,0.01
2012-7-2,93,82,71,80,75,70,97,79,60,29.68,29.54,15,4,18,0.00
2012-7-3,92,83,71,82,76,69,94,79,64,29.58,29.52,10,3,17,0.00
2012-7-4,94,85,75,80,77,73,96,78,60,29.59,29.52,14,4,23,0.00
2012-7-5,86,80,74,77,72,61,97,77,44,29.79,29.60,12,4,18,0.00
2012-7-6,95,80,68,80,71,61,91,74,58,29.88,29.68,12,4,21,0.00
2012-7-7,83,73,62,66,63,60,93,72,48,30.02,29.88,13,4,18,0.00
2012-7-8,88,77,64,72,66,62,92,71,48,30.05,29.94,5,1,9,0.00
2012-7-9,84,74,64,67,62,56,96,70,41,30.02,29.96,9,2,13,0.00
2012-7-10,86,74,58,68,61,55,97,68,38,30.04,29.94,6,0,7,0.00
2012-7-11,85,73,59,65,61,57,94,69,45,29.99,29.86,10,3,16,0.00
2012-7-12,85,73,62,74,66,59,93,79,63,29.87,29.76,12,4,18,0.00
2012-7-13,89,78,66,74,70,65,97,76,52,29.82,29.75,17,2,27,0.00
2012-7-14,90,78,63,77,69,62,96,75,48,29.88,29.81,5,1,8,0.00
2012-7-15,88,78,65,74,70,64,97,78,60,29.88,29.72,12,4,19,0.00
2012-7-16,96,84,74,76,71,66,85,66,48,29.72,29.54,14,5,19,0.00
2012-7-17,88,79,72,78,73,68,96,81,69,29.71,29.57,12,5,18,0.00
2012-7-18,85,75,70,74,71,68,98,86,68,29.78,29.66,8,3,16,0.14
2012-7-19,85,75,66,75,71,65,100,88,70,29.89,29.77,10,2,13,0.00
2012-7-20,86,77,67,79,73,66,98,87,72,29.95,29.82,10,4,15,0.00
2012-7-21,89,78,71,77,73,70,96,86,64,29.87,29.78,8,2,12,0.04
2012-7-22,91,80,72,79,74,70,98,84,63,29.82,29.71,9,2,13,0.00
2012-7-23,90,79,70,76,71,66,99,80,46,29.83,29.73,8,2,25,0.93
2012-7-24,81,74,68,77,72,67,99,94,86,29.81,29.54,15,6,21,0.11
2012-7-25,86,79,70,78,74,66,97,85,69,29.55,29.43,11,2,16,0.00
2012-7-26,83,72,61,68,64,60,97,79,54,29.72,29.54,8,1,21,0.01
2012-7-27,79,69,61,67,63,60,98,84,58,29.95,29.72,5,1,9,0.00
2012-7-28,82,71,60,71,66,59,97,84,67,29.98,29.84,11,3,17,0.00
2012-7-29,82,74,68,71,68,66,96,83,68,29.86,29.76,11,3,16,0.00
2012-7-30,86,76,66,72,68,64,98,78,50,29.83,29.73,9,2,12,0.00
2012-7-31,87,74,60,73,67,58,98,80,54,29.87,29.77,8,2,10,0.00
2012-8-1,93,76,69,79,70,62,93,81,61,29.77,29.63,11,4,20,0.05
2012-8-2,88,75,63,71,67,62,98,77,48,29.75,29.68,4,1,8,0.00
2012-8-3,88,74,61,74,68,60,97,81,58,29.73,29.53,14,4,19,0.85
2012-8-4,78,68,62,64,61,57,98,80,49,29.89,29.61,11,3,23,0.09
2012-8-5,77,65,52,62,56,51,97,75,50,30.09,29.89,7,2,16,0.00
2012-8-6,89,72,56,73,63,53,93,75,52,29.98,29.78,9,2,15,0.00
2012-8-7,89,74,61,69,64,60,97,75,44,29.87,29.80,8,1,14,0.00
2012-8-8,77,70,61,68,64,59,93,82,70,29.89,29.76,11,4,17,0.04
2012-8-9,77,66,56,67,59,55,98,79,50,29.99,29.88,14,3,19,0.00
2012-8-10,75,64,53,59,55,51,95,75,47,30.08,29.96,10,3,15,0.00
2012-8-11,74,62,48,59,53,46,95,75,45,29.99,29.86,8,2,15,0.00
2012-8-12,61,58,54,60,57,53,97,94,87,29.94,29.86,7,1,10,0.82
2012-8-13,81,65,51,67,59,50,98,82,51,29.96,29.85,5,0,14,0.01
2012-8-14,73,64,51,62,58,50,96,82,62,29.88,29.70,8,2,12,0.01
2012-8-15,84,70,62,72,65,60,95,83,66,29.70,29.51,19,4,21,0.53
2012-8-16,70,61,51,61,54,48,94,78,47,29.95,29.70,9,2,20,0.00
2012-8-17,75,59,44,58,50,43,96,74,43,30.02,29.91,5,1,8,0.00
2012-8-18,79,64,48,61,53,47,95,72,39,29.92,29.84,4,1,8,0.00
2012-8-19,77,65,54,60,56,52,95,75,47,29.92,29.85,6,1,12,0.00
2012-8-20,77,64,49,59,52,47,94,68,37,29.92,29.85,7,1,9,0.00
2012-8-21,82,65,46,60,53,45,94,69,36,29.94,29.82,7,1,13,0.00
2012-8-22,80,68,56,65,60,53,91,77,58,29.84,29.66,18,6,24,0.00
2012-8-23,87,75,67,75,66,61,93,75,61,29.71,29.58,18,4,28,0.04
2012-8-24,89,75,61,74,68,59,96,80,57,29.68,29.61,18,4,21,0.00
2012-8-25,78,71,67,70,67,65,95,87,74,29.78,29.68,10,4,18,0.07
2012-8-26,87,72,64,69,64,55,97,79,36,29.90,29.77,7,1,12,0.01
2012-8-27,85,70,55,66,59,53,95,72,41,30.02,29.90,5,1,8,0.00
2012-8-28,85,74,65,72,67,61,92,81,64,29.97,29.76,17,5,20,0.02
2012-8-29,91,76,64,70,67,62,94,74,48,29.77,29.56,11,4,17,0.00
2012-8-30,86,74,61,71,63,59,91,71,48,29.82,29.49,10,3,15,0.00
2012-8-31,81,67,52,59,53,48,94,67,32,30.00,29.82,13,3,20,0.00
2012-9-1,85,71,59,64,57,51,79,63,42,29.98,29.84,14,5,19,0.00
2012-9-2,90,74,58,69,62,54,88,67,48,29.84,29.63,12,4,23,0.00
2012-9-3,89,74,60,66,59,46,95,66,23,29.78,29.67,7,2,12,0.00
2012-9-4,90,73,57,63,56,45,95,61,21,29.75,29.54,22,2,30,0.09
2012-9-5,78,66,54,59,52,44,92,64,31,29.79,29.54,11,1,35,0.00
2012-9-6,82,62,45,58,51,43,94,70,28,29.85,29.72,7,2,14,0.00
2012-9-7,68,61,48,56,50,44,94,70,43,29.96,29.78,12,2,14,0.00
2012-9-8,78,59,42,50,45,40,94,64,32,29.98,29.77,14,3,26,0.00
2012-9-9,75,59,43,53,47,41,95,69,36,30.11,29.94,8,1,13,0.00
2012-9-10,86,69,50,52,50,46,86,55,30,29.94,29.60,22,8,32,0.00
2012-9-11,95,76,62,56,52,43,73,48,23,29.75,29.50,18,5,27,0.00
2012-9-12,68,59,53,52,50,39,90,73,36,30.13,29.75,16,4,21,0.00
2012-9-13,77,60,41,50,37,28,94,53,17,30.25,30.11,11,2,16,0.00
2012-9-14,76,61,46,42,38,34,76,45,22,30.21,30.08,16,7,19,0.00
2012-9-15,87,66,42,49,43,38,90,50,20,30.08,29.79,23,9,30,0.00
2012-9-16,81,67,53,54,48,42,87,54,32,29.86,29.74,16,6,23,0.00
2012-9-17,63,52,40,48,44,37,94,76,43,29.94,29.84,10,1,18,0.26
2012-9-18,59,48,34,42,36,32,95,68,37,29.99,29.73,11,2,14,0.01
2012-9-19,72,58,47,49,41,36,88,55,31,29.77,29.55,22,4,30,0.00
2012-9-20,67,56,44,41,36,32,73,50,28,29.87,29.76,9,2,23,0.00
2012-9-21,65,56,44,47,40,24,88,59,32,29.88,29.71,22,3,30,0.00
2012-9-22,58,46,37,40,32,24,77,60,31,30.20,29.89,8,1,18,0.00
2012-9-23,62,45,28,35,29,25,90,59,26,30.27,30.07,9,1,15,0.00
2012-9-24,79,56,36,40,34,27,74,48,19,30.07,29.64,11,4,20,0.00
2012-9-25,70,54,39,44,37,30,87,55,26,29.88,29.68,10,1,16,0.00
2012-9-26,64,49,32,41,34,29,92,60,31,30.12,29.88,11,2,14,0.00
2012-9-27,70,52,35,39,34,30,85,53,26,30.18,30.05,8,1,16,0.00
2012-9-28,79,59,39,44,36,32,80,47,19,30.11,29.98,12,2,15,0.00
2012-9-29,84,66,45,40,37,32,70,38,18,30.03,29.87,6,0,10,0.00
2012-9-30,84,64,45,45,39,34,71,43,19,29.89,29.73,9,2,17,0.00
2012-10-1,70,60,45,50,40,30,78,51,27,29.88,29.73,12,3,22,0.00
2012-10-2,74,54,34,40,31,26,79,46,18,29.88,29.69,19,5,24,0.00
2012-10-3,79,60,43,37,32,28,61,38,16,29.77,29.58,22,8,27,0.00
2012-10-4,66,45,39,42,35,32,87,69,34,30.14,29.58,25,7,32,0.00
2012-10-5,46,39,30,33,28,26,85,66,49,30.17,30.11,12,5,21,0.00
2012-10-6,44,37,28,31,27,21,85,69,46,30.27,30.16,9,3,16,0.00
2012-10-7,57,38,20,27,20,16,86,54,24,30.19,29.77,21,7,26,0.00
2012-10-8,66,49,35,43,31,19,68,51,35,29.77,29.49,21,7,26,0.00
2012-10-9,49,47,44,38,34,31,82,61,54,29.94,29.64,9,5,16,0.00
2012-10-10,55,49,29,34,29,24,89,48,30,30.11,29.77,20,7,24,0.00
2012-10-11,55,44,27,35,28,18,80,56,34,30.41,29.76,17,5,25,0.00
2012-10-12,55,39,18,26,19,12,87,50,24,30.44,29.94,25,9,30,0.00
2012-10-13,61,52,42,51,44,24,93,76,33,29.93,29.63,23,5,29,0.00
2012-10-14,60,47,38,44,38,31,96,75,47,29.92,29.72,9,3,14,0.00
2012-10-15,66,49,30,44,36,26,91,64,37,29.95,29.63,14,5,24,0.00
2012-10-16,76,62,50,48,45,41,74,56,35,29.62,29.28,10,3,19,0.00
2012-10-17,58,52,44,52,46,42,94,80,67,29.30,29.03,23,9,28,0.12
2012-10-18,48,45,41,46,43,40,96,95,91,29.40,29.15,14,6,21,0.32
2012-10-19,46,44,42,45,42,41,96,95,93,29.75,29.40,13,6,17,0.11
2012-10-20,52,45,40,48,43,39,97,93,85,29.81,29.71,15,5,20,0.00
2012-10-21,60,49,42,52,46,41,95,89,70,29.91,29.70,16,6,19,0.00
2012-10-22,58,51,43,51,47,42,96,87,76,29.95,29.80,22,11,30,0.01
2012-10-23,62,57,52,61,55,50,98,95,86,29.80,29.61,17,8,23,0.24
2012-10-24,58,49,42,56,47,40,95,91,84,29.87,29.74,12,5,16,0.04
2012-10-25,42,36,33,40,34,30,97,91,80,30.22,29.79,13,7,18,0.19
2012-10-26,39,35,32,31,30,28,88,81,68,30.40,30.22,10,4,21,0.00
2012-10-27,42,34,26,32,28,24,93,81,57,30.39,30.29,11,4,17,0.00
2012-10-28,47,38,32,38,32,28,89,80,66,30.32,30.22,14,7,22,0.00
2012-10-29,50,40,35,35,31,29,84,72,54,30.25,30.18,22,12,27,0.00
2012-10-30,47,39,32,35,31,28,87,74,52,30.21,30.08,16,6,18,0.00
2012-10-31,56,44,34,36,33,28,85,67,41,30.11,29.93,8,1,9,0.00
2012-11-1,46,40,28,40,32,23,92,74,51,30.09,29.93,10,4,15,0.00
2012-11-2,38,33,27,30,28,23,88,80,72,30.19,30.08,11,4,17,0.00
2012-11-3,43,38,33,36,33,30,92,82,69,30.23,30.17,9,2,9,0.00
2012-11-4,41,39,37,39,37,35,96,93,89,30.20,30.12,11,6,14,0.00
2012-11-5,40,38,35,40,36,34,97,96,93,30.18,29.91,14,6,18,0.06
2012-11-6,44,41,37,40,38,36,95,91,84,30.02,29.79,16,6,25,0.07
2012-11-7,48,40,32,40,36,31,96,86,65,30.13,29.97,20,5,24,0.00
2012-11-8,53,42,36,42,37,33,94,83,61,30.02,29.88,19,8,24,0.00
2012-11-9,50,42,36,44,39,34,94,88,78,30.02,29.83,27,14,30,0.00
2012-11-10,68,50,42,56,47,40,96,89,60,29.82,29.41,27,14,34,0.12
2012-11-11,41,27,19,40,23,14,96,84,75,29.98,29.53,15,6,23,0.00
2012-11-12,27,22,18,20,17,14,92,83,75,30.34,29.97,14,5,20,0.00
2012-11-13,44,30,16,34,25,13,90,81,64,30.34,30.26,14,4,19,0.00
2012-11-14,50,39,29,41,34,27,94,82,64,30.26,30.11,9,3,15,0.00
2012-11-15,42,35,23,36,31,21,92,84,70,30.50,30.10,11,3,15,0.00
2012-11-16,43,31,19,30,23,17,93,75,48,30.51,30.25,16,6,20,0.00
2012-11-17,58,45,34,42,37,30,87,72,53,30.25,30.07,24,11,27,0.00
2012-11-18,60,48,36,42,38,32,86,69,51,30.07,29.97,17,9,25,0.00
2012-11-19,57,45,34,43,39,32,93,79,60,30.12,29.97,15,4,17,0.00
2012-11-20,54,37,24,43,32,23,98,82,52,30.21,29.97,13,4,19,0.00
2012-11-21,63,51,37,46,40,33,87,68,46,29.97,29.59,20,8,25,0.00
2012-11-22,55,39,23,44,34,18,95,81,66,30.13,29.55,16,7,24,0.00
2012-11-23,24,19,12,19,14,9,89,81,73,30.48,30.14,20,8,25,0.00
2012-11-24,31,21,8,23,15,6,91,79,63,30.42,29.84,21,5,24,0.00
2012-11-25,33,28,22,27,23,15,89,80,71,30.25,29.88,11,5,16,0.00
2012-11-26,23,16,8,15,9,4,86,74,59,30.51,30.25,10,3,14,0.00
2012-11-27,39,26,14,28,20,9,92,78,62,30.37,30.12,13,5,20,0.00
2012-11-28,39,29,21,29,24,19,92,83,68,30.36,30.07,18,5,21,0.00
2012-11-29,40,30,19,30,24,17,92,82,65,30.11,30.02,20,7,26,0.00
2012-11-30,36,31,23,33,28,21,94,90,86,30.18,30.00,19,9,24,0.00
2012-12-1,51,40,30,42,35,28,95,85,64,29.99,29.70,28,6,30,0.00
2012-12-2,54,38,22,42,33,21,96,83,62,29.97,29.67,17,7,25,0.00
2012-12-3,53,46,35,47,39,27,95,78,57,29.96,29.50,18,8,25,0.00
2012-12-4,38,26,17,27,18,11,85,73,58,30.43,29.96,10,2,14,0.00
2012-12-5,44,30,16,32,21,12,83,69,55,30.43,29.77,27,14,35,0.00
2012-12-6,46,37,24,36,29,19,85,72,56,30.02,29.74,15,4,19,0.00
2012-12-7,31,27,21,28,25,18,95,90,81,30.09,30.01,11,2,15,0.00
2012-12-8,30,26,24,29,25,22,96,95,94,30.07,29.93,18,7,22,0.00
2012-12-9,32,24,4,32,23,2,97,95,90,30.08,29.84,27,12,32,0.00
2012-12-10,6,-3,-12,4,-6,-16,90,87,84,30.09,29.90,9,3,12,0.00
2012-12-11,20,10,1,18,8,-1,94,91,88,30.02,29.89,4,0,6,0.00
2012-12-12,33,22,2,30,20,-1,95,91,87,30.01,29.82,18,6,22,0.00
2012-12-13,25,15,0,23,13,0,94,89,90,30.18,29.89,8,1,9,0.00
2012-12-14,36,22,6,33,19,4,94,91,88,30.17,29.75,22,9,28,0.00
2012-12-15,36,34,23,35,32,21,97,95,89,29.75,29.51,18,7,23,0.24
2012-12-16,22,19,12,21,17,10,95,94,92,29.87,29.66,9,4,14,0.01
2012-12-17,23,21,19,22,20,18,95,95,95,29.87,29.69,8,1,9,0.04
2012-12-18,30,26,24,28,25,22,96,95,93,29.83,29.63,11,6,14,0.00
2012-12-19,26,19,8,24,17,6,95,92,86,30.10,29.83,8,2,12,0.00
2012-12-20,21,15,4,19,13,1,94,91,88,30.22,30.01,16,8,19,0.00
2012-12-21,8,3,-4,6,0,-7,90,84,83,30.39,30.22,10,2,14,0.00
2012-12-22,19,12,8,15,9,6,90,87,83,30.22,30.06,15,5,18,0.00
2012-12-23,15,10,4,11,7,2,91,88,84,30.21,30.09,15,3,18,0.00
2012-12-24,15,5,-6,13,2,-9,92,87,82,30.42,30.10,13,5,15,0.00
2012-12-25,2,-4,-9,-2,-8,-12,87,84,80,30.63,30.42,8,2,9,0.00
2012-12-26,11,5,-2,5,1,-5,88,84,75,30.53,30.31,3,0,4,0.00
2012-12-27,18,13,3,16,10,0,93,89,85,30.32,30.19,13,7,17,0.00
2012-12-28,18,14,7,16,12,5,94,92,88,30.19,30.09,9,3,12,0.00
2012-12-29,13,6,-4,11,4,-7,93,90,86,30.24,30.12,5,1,7,0.00
2012-12-30,20,9,-3,17,6,-6,92,90,87,30.24,29.95,14,5,18,0.00
2012-12-31,18,6,-8,16,2,-11,91,83,78,30.36,30.14,13,5,19,0.00
2013-1-1,23,10,-10,20,8,-14,92,89,84,30.36,30.06,15,6,19,0.00